Аэропорт: Гомель. Гомель

ICAO: UMGG

METAR:
2018/05/20 23:00
UMGG 202300Z 36004MPS 9999 OVC016CB 10/08 Q1022 R10/CLRD// NOSIG
METAR:
2018/05/20 18:24
TAF UMGG 201700Z 2018/2118 01007MPS 9999 BKN020 
      TEMPO 2018/2104 2000 -SHRA BR BKN005 SCT025CB 
      BECMG 2104/2106 04007MPS 
      TEMPO 2106/2118 06006G11MPS 3000 -SHRA BKN007 BKN025CB PROB40 
      TEMPO 2106/2118 -TSRA BKN020CB